createdAt,value
2023-05-21T00:00:26.911Z,90.10
2023-05-21T00:03:16.483Z,92.81
2023-05-21T00:05:47.811Z,93.19
2023-05-21T00:08:16.255Z,92.85
2023-05-21T00:10:44.564Z,93.19
2023-05-21T00:13:12.901Z,91.29
2023-05-21T00:15:41.425Z,92.27
2023-05-21T00:18:09.738Z,95.56
2023-05-21T00:20:38.446Z,94.36
2023-05-21T00:23:06.774Z,94.12
2023-05-21T00:25:35.417Z,93.12
2023-05-21T00:28:04.098Z,92.70
2023-05-21T00:30:32.332Z,93.16
2023-05-21T00:33:03.071Z,92.01
2023-05-21T00:35:31.457Z,93.34
2023-05-21T00:37:59.960Z,91.95
2023-05-21T00:40:28.299Z,92.12
2023-05-21T00:42:57.456Z,94.19
2023-05-21T00:45:25.766Z,96.63
2023-05-21T00:47:57.111Z,93.20
2023-05-21T00:50:26.287Z,92.81
2023-05-21T00:52:54.648Z,92.36
2023-05-21T00:55:23.297Z,92.41
2023-05-21T00:57:51.633Z,92.18
2023-05-21T01:00:20.376Z,91.58
2023-05-21T01:02:50.019Z,94.77
2023-05-21T01:05:19.605Z,94.69
2023-05-21T01:07:48.580Z,93.34
2023-05-21T01:10:17.207Z,93.11
2023-05-21T01:12:47.330Z,92.46
2023-05-21T01:15:15.715Z,92.76
2023-05-21T01:17:46.287Z,92.87
2023-05-21T01:20:20.757Z,92.99
2023-05-21T01:22:56.188Z,91.73
2023-05-21T01:25:25.727Z,90.32
2023-05-21T01:27:54.068Z,89.88
2023-05-21T01:30:23.940Z,90.42
2023-05-21T01:33:13.442Z,91.87
2023-05-21T01:35:48.019Z,91.61
2023-05-21T01:38:31.428Z,92.07
2023-05-21T01:41:06.713Z,92.97
2023-05-21T01:43:41.718Z,92.15
2023-05-21T01:46:14.576Z,91.89
2023-05-21T01:48:43.839Z,93.01
2023-05-21T01:51:13.204Z,94.61
2023-05-21T01:53:41.481Z,93.09
2023-05-21T01:56:11.463Z,92.05
2023-05-21T01:58:39.856Z,92.73
2023-05-21T02:01:09.044Z,92.04
2023-05-21T02:03:38.682Z,93.44
2023-05-21T02:06:07.138Z,92.98
2023-05-21T02:08:35.325Z,93.24
2023-05-21T02:11:03.840Z,94.17
2023-05-21T02:13:32.644Z,94.06
2023-05-21T02:16:01.829Z,92.56
2023-05-21T02:18:30.256Z,92.52
2023-05-21T02:20:58.434Z,92.39
2023-05-21T02:23:27.107Z,93.75
2023-05-21T02:25:55.417Z,93.93
2023-05-21T02:28:24.150Z,93.53
2023-05-21T02:30:52.739Z,94.39
2023-05-21T02:33:22.101Z,93.94
2023-05-21T02:35:50.464Z,94.05
2023-05-21T02:38:19.689Z,92.02
2023-05-21T02:40:48.074Z,93.28
2023-05-21T02:43:16.962Z,94.86
2023-05-21T02:45:45.350Z,93.76
2023-05-21T02:48:13.757Z,93.84
2023-05-21T02:50:42.707Z,94.52
2023-05-21T02:53:11.186Z,94.92
2023-05-21T02:55:39.549Z,94.62
2023-05-21T02:58:08.098Z,94.78
2023-05-21T03:00:36.449Z,93.72
2023-05-21T03:03:05.268Z,92.61
2023-05-21T03:05:33.704Z,93.19
2023-05-21T03:08:01.989Z,92.86
2023-05-21T03:10:30.491Z,93.45
2023-05-21T03:12:58.869Z,93.02
2023-05-21T03:15:27.591Z,94.19
2023-05-21T03:17:55.977Z,95.49
2023-05-21T03:20:25.010Z,93.32
2023-05-21T03:22:55.258Z,93.26
2023-05-21T03:25:25.379Z,93.51
2023-05-21T03:27:54.034Z,93.27
2023-05-21T03:30:46.636Z,93.19
2023-05-21T03:33:35.956Z,93.46
2023-05-21T03:36:14.114Z,93.58
2023-05-21T03:38:42.537Z,93.92
2023-05-21T03:41:11.087Z,92.98
2023-05-21T03:43:39.815Z,93.84
2023-05-21T03:46:08.128Z,93.31
2023-05-21T03:48:51.630Z,93.60
2023-05-21T03:51:21.233Z,93.91
2023-05-21T03:53:49.412Z,94.34
2023-05-21T03:56:18.065Z,93.86
2023-05-21T03:58:46.989Z,94.09
2023-05-21T04:01:15.618Z,93.75
2023-05-21T04:03:43.986Z,94.09
2023-05-21T04:06:12.554Z,93.55
2023-05-21T04:08:40.862Z,93.65
2023-05-21T04:11:10.411Z,93.57
2023-05-21T04:13:39.206Z,94.09
2023-05-21T04:16:09.739Z,95.20
2023-05-21T04:18:38.168Z,95.24
2023-05-21T04:21:06.886Z,94.04
2023-05-21T04:23:36.981Z,93.23
2023-05-21T04:26:12.895Z,92.98
2023-05-21T04:28:42.719Z,93.46
2023-05-21T04:31:13.100Z,93.52
2023-05-21T04:33:46.226Z,93.61
2023-05-21T04:36:17.517Z,93.22
2023-05-21T04:38:46.002Z,92.88
2023-05-21T04:41:15.006Z,92.62
2023-05-21T04:43:44.220Z,92.16
2023-05-21T04:46:14.271Z,91.71
2023-05-21T04:48:42.672Z,91.36
2023-05-21T04:51:10.899Z,91.04
2023-05-21T04:53:39.193Z,91.06
2023-05-21T04:56:07.668Z,90.69
2023-05-21T04:58:35.911Z,90.82
2023-05-21T05:01:04.311Z,89.32
2023-05-21T05:03:32.679Z,89.62
2023-05-21T05:06:04.480Z,89.10
2023-05-21T05:08:32.927Z,87.22
2023-05-21T05:11:01.323Z,87.50
2023-05-21T05:13:29.779Z,87.75
2023-05-21T05:15:58.065Z,87.88
2023-05-21T05:18:27.903Z,86.82
2023-05-21T05:20:56.258Z,87.03
2023-05-21T05:23:24.493Z,85.67
2023-05-21T05:25:53.038Z,83.86
2023-05-21T05:28:21.542Z,85.09
2023-05-21T05:30:49.871Z,82.34
2023-05-21T05:33:22.789Z,82.40
2023-05-21T05:35:51.299Z,82.40
2023-05-21T05:38:19.694Z,82.52
2023-05-21T05:40:48.616Z,82.15
2023-05-21T05:43:17.505Z,74.39
2023-05-21T05:45:46.325Z,79.37
2023-05-21T05:48:17.009Z,75.77
2023-05-21T05:50:46.629Z,72.08
2023-05-21T05:53:15.740Z,72.71
2023-05-21T05:55:43.990Z,69.68
2023-05-21T05:58:12.248Z,70.04
2023-05-21T06:00:50.055Z,70.46
2023-05-21T06:03:19.018Z,71.98
2023-05-21T06:05:47.652Z,65.34
2023-05-21T06:08:16.809Z,63.94
2023-05-21T06:10:45.217Z,62.71
2023-05-21T06:13:13.456Z,57.72
2023-05-21T06:15:43.492Z,57.30
2023-05-21T06:18:11.990Z,59.80
2023-05-21T06:20:40.446Z,54.77
2023-05-21T06:23:09.851Z,57.59
2023-05-21T06:25:38.552Z,56.65
2023-05-21T06:28:07.166Z,51.95
2023-05-21T06:30:35.840Z,54.33
2023-05-21T06:33:04.194Z,56.21
2023-05-21T06:35:35.248Z,53.85
2023-05-21T06:38:03.981Z,50.48
2023-05-21T06:40:32.462Z,52.06
2023-05-21T06:43:01.099Z,48.56
2023-05-21T06:45:58.611Z,48.34
2023-05-21T06:48:36.226Z,48.72
2023-05-21T06:51:04.634Z,46.32
2023-05-21T06:53:33.213Z,44.48
2023-05-21T06:56:02.010Z,44.52
2023-05-21T06:58:38.239Z,46.96
2023-05-21T07:01:06.964Z,46.49
2023-05-21T07:03:36.685Z,45.94
2023-05-21T07:06:05.162Z,44.16
2023-05-21T07:08:33.601Z,42.18
2023-05-21T07:11:02.195Z,43.49
2023-05-21T07:13:31.427Z,39.34
2023-05-21T07:15:59.699Z,38.22
2023-05-21T07:18:28.176Z,38.26
2023-05-21T07:20:57.394Z,36.99
2023-05-21T07:23:26.072Z,37.83
2023-05-21T07:25:54.622Z,36.23
2023-05-21T07:28:23.572Z,37.06
2023-05-21T07:30:51.937Z,36.48
2023-05-21T07:33:23.207Z,36.59
2023-05-21T07:35:51.710Z,36.62
2023-05-21T07:38:20.126Z,34.87
2023-05-21T07:40:48.350Z,34.88
2023-05-21T07:43:16.794Z,35.57
2023-05-21T07:45:45.732Z,35.62
2023-05-21T07:48:14.444Z,36.84
2023-05-21T07:50:53.276Z,35.96
2023-05-21T07:53:21.898Z,34.47
2023-05-21T07:55:51.501Z,34.79
2023-05-21T07:58:24.535Z,34.35
2023-05-21T08:00:52.858Z,34.95
2023-05-21T08:03:21.257Z,36.07
2023-05-21T08:05:52.178Z,33.83
2023-05-21T08:08:22.139Z,34.97
2023-05-21T08:10:51.606Z,34.19
2023-05-21T08:13:20.682Z,33.57
2023-05-21T08:15:52.046Z,33.46
2023-05-21T08:18:23.987Z,32.77
2023-05-21T08:20:53.110Z,33.07
2023-05-21T08:23:22.010Z,35.08
2023-05-21T08:25:53.729Z,34.17
2023-05-21T08:28:23.726Z,33.42
2023-05-21T08:30:53.121Z,32.72
2023-05-21T08:33:21.621Z,32.90
2023-05-21T08:35:50.027Z,30.93
2023-05-21T08:38:41.281Z,32.59
2023-05-21T08:41:27.053Z,33.73
2023-05-21T08:43:59.716Z,33.60
2023-05-21T08:46:36.881Z,33.78
2023-05-21T08:49:10.646Z,33.73
2023-05-21T08:51:39.700Z,36.11
2023-05-21T08:54:08.295Z,34.37
2023-05-21T08:56:37.418Z,35.37
2023-05-21T08:59:07.923Z,37.07
2023-05-21T09:01:38.692Z,37.48
2023-05-21T09:04:27.760Z,36.56
2023-05-21T09:06:58.085Z,37.57
2023-05-21T09:09:57.914Z,38.76
2023-05-21T09:12:28.043Z,38.56
2023-05-21T09:14:59.081Z,40.26
2023-05-21T09:17:32.275Z,40.81
2023-05-21T09:20:16.127Z,38.51
2023-05-21T09:22:51.727Z,39.33
2023-05-21T09:25:28.351Z,40.51
2023-05-21T09:27:57.499Z,38.55
2023-05-21T09:30:28.689Z,38.77
2023-05-21T09:33:00.286Z,40.04
2023-05-21T09:35:29.084Z,39.50
2023-05-21T09:37:57.763Z,37.25
2023-05-21T09:40:26.353Z,37.08
2023-05-21T09:42:56.109Z,38.27
2023-05-21T09:45:26.344Z,40.19
2023-05-21T09:47:56.387Z,38.54
2023-05-21T09:50:29.513Z,41.69
2023-05-21T09:52:58.472Z,41.60
2023-05-21T09:55:27.188Z,38.53
2023-05-21T09:57:55.623Z,38.27
2023-05-21T10:00:27.669Z,40.17
2023-05-21T10:02:58.330Z,40.85
2023-05-21T10:05:30.971Z,38.89
2023-05-21T10:08:03.397Z,37.82
2023-05-21T10:10:32.242Z,38.22
2023-05-21T10:13:10.442Z,37.17
2023-05-21T10:15:42.684Z,38.68
2023-05-21T10:18:12.518Z,41.15
2023-05-21T10:20:41.693Z,38.88
2023-05-21T10:23:10.666Z,39.58
2023-05-21T10:25:40.108Z,39.70
2023-05-21T10:28:08.570Z,39.48
2023-05-21T10:30:38.311Z,37.85
2023-05-21T10:33:07.310Z,39.38
2023-05-21T10:35:38.754Z,38.46
2023-05-21T10:38:09.327Z,39.20
2023-05-21T10:40:38.111Z,39.39
2023-05-21T10:43:12.428Z,39.75
2023-05-21T10:46:15.706Z,39.54
2023-05-21T10:48:59.236Z,37.27
2023-05-21T10:51:34.563Z,40.16
2023-05-21T10:54:18.201Z,36.29
2023-05-21T10:56:57.119Z,37.93
2023-05-21T10:59:42.570Z,38.95
2023-05-21T11:02:15.064Z,37.79
2023-05-21T11:04:49.426Z,35.15
2023-05-21T11:07:24.732Z,35.42
2023-05-21T11:09:53.092Z,35.73
2023-05-21T11:12:23.420Z,36.36
2023-05-21T11:14:58.798Z,37.38
2023-05-21T11:17:40.871Z,36.88
2023-05-21T11:20:16.812Z,36.39
2023-05-21T11:22:46.899Z,35.68
2023-05-21T11:25:15.941Z,35.62
2023-05-21T11:27:44.287Z,34.92
2023-05-21T11:30:19.768Z,35.42
2023-05-21T11:33:11.399Z,35.20
2023-05-21T11:35:45.751Z,34.66
2023-05-21T11:38:14.015Z,34.92
2023-05-21T11:40:56.608Z,35.40
2023-05-21T11:43:24.713Z,35.14
2023-05-21T11:45:53.406Z,33.17
2023-05-21T11:48:27.454Z,34.44
2023-05-21T11:50:57.669Z,33.79
2023-05-21T11:53:25.970Z,34.39
2023-05-21T11:55:57.916Z,34.35
2023-05-21T11:58:26.724Z,35.07
2023-05-21T12:00:54.942Z,35.29
2023-05-21T12:03:27.312Z,35.51
2023-05-21T12:05:56.197Z,35.50
2023-05-21T12:08:27.705Z,35.68
2023-05-21T12:10:59.146Z,34.82
2023-05-21T12:13:28.465Z,36.38
2023-05-21T12:15:56.897Z,36.60
2023-05-21T12:18:25.783Z,35.12
2023-05-21T12:20:54.109Z,35.56
2023-05-21T12:23:25.977Z,34.83
2023-05-21T12:25:54.434Z,35.90
2023-05-21T12:28:24.848Z,36.15
2023-05-21T12:30:53.788Z,34.03
2023-05-21T12:33:25.044Z,33.41
2023-05-21T12:35:53.640Z,32.57
2023-05-21T12:38:21.893Z,34.70
2023-05-21T12:40:50.238Z,33.10
2023-05-21T12:43:19.368Z,33.65
2023-05-21T12:45:47.672Z,33.86
2023-05-21T12:48:16.789Z,34.12
2023-05-21T12:50:45.068Z,33.82
2023-05-21T12:53:13.317Z,34.53
2023-05-21T12:55:41.699Z,34.85
2023-05-21T12:58:14.384Z,34.72
2023-05-21T13:00:44.261Z,34.65
2023-05-21T13:03:12.645Z,34.63
2023-05-21T13:05:42.113Z,34.52
2023-05-21T13:08:11.475Z,34.19
2023-05-21T13:10:39.911Z,33.04
2023-05-21T13:13:08.444Z,33.59
2023-05-21T13:15:36.791Z,33.67
2023-05-21T13:18:05.169Z,35.57
2023-05-21T13:20:33.466Z,33.95
2023-05-21T13:23:03.948Z,34.70
2023-05-21T13:25:33.966Z,33.39
2023-05-21T13:28:04.754Z,33.58
2023-05-21T13:30:36.184Z,34.40
2023-05-21T13:33:06.517Z,33.70
2023-05-21T13:35:35.006Z,34.15
2023-05-21T13:38:03.281Z,34.01
2023-05-21T13:40:31.701Z,34.76
2023-05-21T13:42:59.998Z,34.71
2023-05-21T13:45:29.461Z,34.93
2023-05-21T13:47:58.428Z,34.63
2023-05-21T13:50:27.069Z,35.24
2023-05-21T13:52:55.525Z,35.75
2023-05-21T13:55:23.763Z,35.24
2023-05-21T13:57:51.993Z,35.69
2023-05-21T14:00:20.296Z,35.08
2023-05-21T14:02:48.910Z,35.43
2023-05-21T14:05:17.663Z,36.65
2023-05-21T14:07:48.463Z,36.74
2023-05-21T14:10:17.247Z,36.60
2023-05-21T14:12:46.734Z,36.98
2023-05-21T14:15:15.154Z,36.76
2023-05-21T14:17:43.444Z,36.22
2023-05-21T14:20:12.258Z,36.19
2023-05-21T14:22:40.558Z,36.13
2023-05-21T14:25:09.248Z,35.94
2023-05-21T14:27:38.313Z,35.30
2023-05-21T14:30:07.483Z,35.71
2023-05-21T14:32:35.938Z,36.81
2023-05-21T14:35:05.249Z,37.35
2023-05-21T14:37:33.552Z,36.21
2023-05-21T14:40:02.141Z,37.17
2023-05-21T14:42:30.835Z,37.54
2023-05-21T14:44:59.885Z,37.88
2023-05-21T14:47:35.678Z,37.43
2023-05-21T14:50:04.089Z,37.63
2023-05-21T14:52:32.643Z,36.58
2023-05-21T14:55:01.026Z,37.20
2023-05-21T14:57:29.339Z,37.64
2023-05-21T14:59:57.647Z,37.55
2023-05-21T15:02:26.145Z,36.81
2023-05-21T15:04:56.548Z,37.47
2023-05-21T15:07:24.867Z,37.72
2023-05-21T15:09:53.189Z,37.36
2023-05-21T15:12:21.590Z,37.66
2023-05-21T15:14:50.325Z,37.58
2023-05-21T15:17:18.538Z,37.42
2023-05-21T15:19:47.037Z,37.35
2023-05-21T15:22:15.530Z,38.00
2023-05-21T15:24:45.036Z,37.38
2023-05-21T15:27:13.367Z,37.53
2023-05-21T15:29:41.567Z,37.82
2023-05-21T15:32:09.883Z,38.09
2023-05-21T15:34:38.149Z,37.39
2023-05-21T15:37:06.423Z,38.03
2023-05-21T15:39:34.760Z,38.32
2023-05-21T15:42:02.964Z,38.19
2023-05-21T15:44:31.279Z,38.37
2023-05-21T15:46:59.809Z,38.94
2023-05-21T15:49:28.126Z,39.29
2023-05-21T15:51:58.145Z,39.33
2023-05-21T15:54:30.325Z,39.84
2023-05-21T15:56:58.679Z,40.40
2023-05-21T15:59:27.718Z,40.99
2023-05-21T16:01:56.517Z,41.00
2023-05-21T16:04:24.970Z,40.93
2023-05-21T16:06:53.273Z,41.83
2023-05-21T16:09:21.578Z,41.41
2023-05-21T16:11:49.914Z,41.52
2023-05-21T16:14:18.184Z,42.54
2023-05-21T16:16:46.487Z,42.44
2023-05-21T16:19:14.815Z,42.74
2023-05-21T16:21:43.085Z,42.71
2023-05-21T16:24:11.301Z,43.13
2023-05-21T16:26:39.573Z,43.41
2023-05-21T16:29:07.899Z,43.09
2023-05-21T16:31:37.906Z,44.19
2023-05-21T16:34:06.711Z,44.12
2023-05-21T16:36:35.537Z,44.33
2023-05-21T16:39:03.873Z,44.52
2023-05-21T16:41:32.287Z,44.60
2023-05-21T16:44:01.043Z,45.30
2023-05-21T16:46:29.453Z,44.88
2023-05-21T16:48:57.884Z,44.58
2023-05-21T16:51:26.238Z,44.48
2023-05-21T16:53:54.498Z,45.01
2023-05-21T16:56:23.371Z,44.85
2023-05-21T16:58:51.589Z,45.62
2023-05-21T17:01:19.859Z,45.48
2023-05-21T17:03:48.312Z,45.93
2023-05-21T17:06:16.817Z,46.09
2023-05-21T17:08:45.102Z,45.78
2023-05-21T17:11:13.403Z,46.97
2023-05-21T17:13:42.097Z,47.15
2023-05-21T17:16:10.583Z,48.47
2023-05-21T17:18:39.398Z,48.20
2023-05-21T17:21:07.723Z,48.60
2023-05-21T17:23:36.172Z,48.12
2023-05-21T17:26:07.132Z,48.62
2023-05-21T17:28:36.799Z,48.52
2023-05-21T17:31:05.184Z,49.22
2023-05-21T17:33:34.278Z,49.72
2023-05-21T17:36:03.706Z,50.06
2023-05-21T17:38:31.992Z,49.95
2023-05-21T17:41:00.335Z,49.92
2023-05-21T17:43:28.663Z,50.98
2023-05-21T17:45:57.020Z,50.46
2023-05-21T17:48:25.385Z,49.95
2023-05-21T17:50:53.736Z,49.91
2023-05-21T17:53:22.957Z,50.19
2023-05-21T17:55:51.242Z,50.48
2023-05-21T17:58:19.487Z,50.13
2023-05-21T18:00:47.889Z,50.30
2023-05-21T18:03:16.327Z,49.89
2023-05-21T18:05:44.780Z,50.38
2023-05-21T18:08:13.098Z,50.55
2023-05-21T18:10:41.364Z,50.27
2023-05-21T18:13:09.535Z,50.46
2023-05-21T18:15:37.940Z,50.29
2023-05-21T18:18:06.499Z,50.51
2023-05-21T18:20:35.559Z,50.31
2023-05-21T18:23:03.980Z,51.02
2023-05-21T18:25:32.155Z,50.47
2023-05-21T18:28:01.019Z,50.90
2023-05-21T18:30:29.297Z,50.70
2023-05-21T18:32:57.607Z,50.65
2023-05-21T18:35:27.395Z,50.62
2023-05-21T18:37:55.692Z,51.46
2023-05-21T18:40:26.100Z,51.48
2023-05-21T18:42:56.076Z,51.36
2023-05-21T18:45:24.392Z,52.10
2023-05-21T18:47:52.715Z,51.44
2023-05-21T18:50:21.150Z,51.70
2023-05-21T18:52:53.523Z,52.69
2023-05-21T18:55:22.477Z,53.24
2023-05-21T18:57:51.000Z,52.44
2023-05-21T19:00:19.559Z,52.44
2023-05-21T19:02:48.325Z,52.85
2023-05-21T19:05:16.879Z,52.59
2023-05-21T19:07:45.270Z,54.62
2023-05-21T19:10:14.198Z,53.83
2023-05-21T19:12:43.656Z,54.10
2023-05-21T19:15:12.318Z,54.22
2023-05-21T19:17:40.561Z,53.24
2023-05-21T19:20:09.741Z,53.77
2023-05-21T19:22:37.947Z,53.58
2023-05-21T19:25:06.736Z,53.92
2023-05-21T19:27:34.944Z,54.66
2023-05-21T19:30:03.223Z,54.24
2023-05-21T19:32:32.068Z,54.95
2023-05-21T19:35:00.389Z,55.33
2023-05-21T19:37:28.713Z,55.23
2023-05-21T19:39:57.134Z,55.44
2023-05-21T19:42:25.786Z,56.03
2023-05-21T19:44:54.031Z,55.58
2023-05-21T19:47:22.825Z,56.66
2023-05-21T19:49:51.144Z,56.98
2023-05-21T19:52:19.453Z,58.84
2023-05-21T19:54:47.772Z,57.52
2023-05-21T19:57:16.750Z,58.21
2023-05-21T19:59:45.049Z,57.64
2023-05-21T20:02:16.079Z,56.98
2023-05-21T20:04:44.366Z,57.38
2023-05-21T20:07:12.581Z,57.02
2023-05-21T20:09:40.974Z,57.47
2023-05-21T20:12:09.531Z,58.00
2023-05-21T20:14:37.732Z,57.68
2023-05-21T20:17:06.298Z,58.30
2023-05-21T20:19:35.935Z,58.62
2023-05-21T20:22:05.450Z,58.89
2023-05-21T20:24:33.920Z,61.18
2023-05-21T20:27:02.221Z,62.11
2023-05-21T20:29:30.533Z,62.07
2023-05-21T20:31:59.341Z,62.53
2023-05-21T20:34:27.638Z,63.15
2023-05-21T20:36:58.743Z,62.73
2023-05-21T20:39:29.994Z,62.89
2023-05-21T20:41:58.592Z,63.04
2023-05-21T20:44:27.700Z,63.74
2023-05-21T20:46:56.022Z,65.57
2023-05-21T20:49:25.042Z,62.42
2023-05-21T20:51:53.901Z,63.71
2023-05-21T20:54:22.509Z,65.62
2023-05-21T20:56:50.899Z,63.71
2023-05-21T20:59:19.217Z,65.25
2023-05-21T21:01:47.715Z,64.70
2023-05-21T21:04:16.386Z,67.13
2023-05-21T21:06:46.689Z,64.11
2023-05-21T21:09:14.860Z,66.36
2023-05-21T21:11:43.881Z,67.58
2023-05-21T21:14:13.791Z,67.58
2023-05-21T21:16:42.035Z,67.05
2023-05-21T21:19:10.469Z,67.41
2023-05-21T21:21:38.831Z,68.46
2023-05-21T21:24:07.425Z,67.35
2023-05-21T21:26:35.616Z,66.35
2023-05-21T21:29:03.932Z,65.58
2023-05-21T21:31:32.337Z,66.39
2023-05-21T21:34:00.706Z,66.64
2023-05-21T21:36:29.070Z,70.01
2023-05-21T21:38:57.600Z,70.08
2023-05-21T21:41:25.988Z,68.77
2023-05-21T21:43:54.425Z,68.84
2023-05-21T21:46:22.918Z,70.63
2023-05-21T21:48:51.501Z,72.36
2023-05-21T21:51:23.145Z,73.15
2023-05-21T21:53:51.932Z,72.41
2023-05-21T21:56:20.958Z,71.61
2023-05-21T21:58:49.125Z,70.63
2023-05-21T22:01:17.613Z,71.14
2023-05-21T22:03:45.915Z,71.79
2023-05-21T22:06:14.198Z,72.24
2023-05-21T22:08:42.465Z,70.80
2023-05-21T22:11:11.084Z,71.69
2023-05-21T22:13:41.789Z,71.75
2023-05-21T22:16:12.065Z,71.49
2023-05-21T22:18:42.079Z,71.04
2023-05-21T22:21:14.506Z,72.61
2023-05-21T22:23:43.058Z,73.68
2023-05-21T22:26:11.367Z,74.43
2023-05-21T22:28:39.748Z,73.32
2023-05-21T22:31:08.024Z,71.55
2023-05-21T22:33:36.870Z,73.22
2023-05-21T22:36:05.734Z,73.29
2023-05-21T22:38:34.109Z,73.44
2023-05-21T22:41:02.346Z,73.98
2023-05-21T22:43:30.886Z,72.67
2023-05-21T22:45:59.203Z,73.70
2023-05-21T22:48:30.830Z,74.29
2023-05-21T22:51:02.019Z,74.25
2023-05-21T22:53:32.330Z,74.42
2023-05-21T22:56:01.470Z,73.98
2023-05-21T22:58:29.803Z,75.58
2023-05-21T23:00:58.062Z,74.35
2023-05-21T23:03:26.358Z,76.32
2023-05-21T23:05:54.617Z,74.56
2023-05-21T23:08:22.857Z,74.61
2023-05-21T23:10:51.171Z,74.23
2023-05-21T23:13:19.460Z,74.14
2023-05-21T23:15:48.700Z,74.87
2023-05-21T23:18:17.628Z,76.44
2023-05-21T23:20:46.073Z,78.04
2023-05-21T23:23:14.421Z,76.97
2023-05-21T23:25:42.842Z,75.36
2023-05-21T23:28:11.324Z,76.03
2023-05-21T23:30:39.809Z,75.43
2023-05-21T23:33:08.644Z,77.07
2023-05-21T23:35:37.071Z,77.15
2023-05-21T23:38:05.653Z,74.99
2023-05-21T23:40:33.871Z,75.96
2023-05-21T23:43:02.230Z,78.22
2023-05-21T23:45:31.923Z,79.65
2023-05-21T23:48:00.307Z,78.33
2023-05-21T23:50:28.680Z,78.05
2023-05-21T23:52:57.013Z,76.77
2023-05-21T23:55:25.710Z,78.60
2023-05-21T23:57:54.089Z,78.33
